Time;durP1;ratioP1;P1;durP2;ratioP2;P2;SDS_P1;SDS_P2;PMS_P1;PMS_P2;Temp;Humidity;BMP_temperature;BMP_pressure;BME280_temperature;BME280_humidity;BME280_pressure;Samples;Min_cycle;Max_cycle;Signal;HPM_P1;HPM_P2
2021/03/12 00:00:22;;;;;;;3.75;1.85;;;;;;;8.04;64.42;99333.28;692761;28;46338;-61
2021/03/12 00:00:45;;;;;;;2.05;1.73;;;;;;;8.07;64.41;99332.91;692289;28;46345;-62
2021/03/12 00:01:07;;;;;;;2.60;1.63;;;;;;;8.07;64.82;99336.44;691595;28;91482;-63
2021/03/12 00:01:28;;;;;;;2.10;1.90;;;;;;;8.08;64.73;99338.09;692502;28;46080;-62
2021/03/12 00:01:49;;;;;;;1.80;1.70;;;;;;;8.09;64.82;99330.88;693168;28;22419;-62
2021/03/12 00:02:10;;;;;;;2.00;1.80;;;;;;;8.10;64.44;99340.59;693300;28;22283;-61
2021/03/12 00:02:32;;;;;;;2.55;2.00;;;;;;;8.11;64.52;99337.69;693370;28;21515;-62
2021/03/12 00:02:53;;;;;;;2.55;1.88;;;;;;;8.14;64.22;99335.66;693030;28;46339;-62
2021/03/12 00:03:15;;;;;;;2.97;1.98;;;;;;;8.13;64.19;99334.81;693434;28;23517;-63
2021/03/12 00:03:37;;;;;;;1.92;1.63;;;;;;;8.13;64.17;99345.56;692514;28;43767;-63
2021/03/12 00:03:59;;;;;;;1.73;1.63;;;;;;;8.18;64.34;99339.59;692491;28;41928;-62
2021/03/12 00:04:20;;;;;;;1.60;1.50;;;;;;;8.17;64.17;99332.59;695174;28;29353;-64
2021/03/12 00:04:41;;;;;;;1.60;1.50;;;;;;;8.15;64.00;99334.63;693542;28;23489;-61
2021/03/12 00:05:04;;;;;;;1.65;1.55;;;;;;;8.14;64.26;99336.47;693560;28;23531;-60
2021/03/12 00:05:25;;;;;;;2.90;1.52;;;;;;;8.16;64.11;99329.03;691767;28;68513;-62
2021/03/12 00:05:48;;;;;;;2.95;1.65;;;;;;;8.15;64.14;99332.78;692861;28;21680;-63
2021/03/12 00:06:10;;;;;;;2.58;1.70;;;;;;;8.14;64.26;99338.34;691964;28;67499;-62
2021/03/12 00:06:36;;;;;;;1.95;1.85;;;;;;;8.11;64.21;99340.38;692734;28;45322;-60
2021/03/12 00:06:57;;;;;;;2.13;1.70;;;;;;;8.10;64.30;99329.81;689559;28;138087;-62
2021/03/12 00:07:18;;;;;;;2.20;1.80;;;;;;;8.10;64.33;99341.44;694169;28;10520;-59
2021/03/12 00:07:40;;;;;;;2.03;1.60;;;;;;;8.14;64.37;99335.66;693540;28;22413;-63
2021/03/12 00:08:01;;;;;;;2.72;1.65;;;;;;;8.15;64.22;99334.63;692845;28;46276;-61
2021/03/12 00:08:23;;;;;;;1.83;1.58;;;;;;;8.17;63.99;99341.47;693315;28;22465;-61
2021/03/12 00:08:46;;;;;;;1.88;1.67;;;;;;;8.17;64.00;99338.78;692147;28;44378;-61
2021/03/12 00:09:07;;;;;;;2.95;1.83;;;;;;;8.19;64.13;99338.59;691889;28;67404;-60
2021/03/12 00:09:28;;;;;;;3.03;1.92;;;;;;;8.20;64.25;99345.63;693104;28;19605;-61
2021/03/12 00:09:49;;;;;;;2.22;1.67;;;;;;;8.17;64.17;99349.53;694422;28;4487;-61
2021/03/12 00:10:11;;;;;;;2.00;1.60;;;;;;;8.17;64.10;99356.78;693184;28;22800;-62
2021/03/12 00:10:33;;;;;;;2.83;1.60;;;;;;;8.17;63.97;99346.84;693303;28;22467;-62
2021/03/12 00:10:54;;;;;;;2.55;1.90;;;;;;;8.13;64.21;99348.25;692474;28;44269;-61
2021/03/12 00:11:15;;;;;;;2.15;1.85;;;;;;;8.12;64.09;99350.13;694304;28;9446;-62
2021/03/12 00:11:36;;;;;;;1.88;1.70;;;;;;;8.11;64.35;99350.31;694138;28;22412;-61
2021/03/12 00:11:57;;;;;;;1.92;1.73;;;;;;;8.10;64.49;99357.56;693828;28;22424;-62
2021/03/12 00:12:19;;;;;;;1.83;1.73;;;;;;;8.09;64.57;99355.91;692783;28;23215;-61
2021/03/12 00:12:40;;;;;;;2.00;1.60;;;;;;;8.09;64.50;99355.91;692031;28;45210;-62
2021/03/12 00:13:01;;;;;;;1.83;1.73;;;;;;;8.09;64.32;99355.91;693162;28;22422;-62
2021/03/12 00:13:24;;;;;;;2.45;1.63;;;;;;;8.08;64.58;99354.22;693443;28;21429;-61
2021/03/12 00:13:45;;;;;;;3.15;1.80;;;;;;;8.09;64.37;99357.75;692265;28;68013;-64
2021/03/12 00:14:06;;;;;;;3.00;1.85;;;;;;;8.09;64.47;99355.91;693804;28;8950;-61
2021/03/12 00:14:28;;;;;;;2.03;1.77;;;;;;;8.11;64.35;99361.06;693363;28;20628;-59
2021/03/12 00:14:49;;;;;;;1.60;1.50;;;;;;;8.10;64.35;99362.94;693547;28;17043;-61
2021/03/12 00:15:13;;;;;;;1.92;1.70;;;;;;;8.12;64.26;99350.13;692948;28;23520;-62
2021/03/12 00:15:34;;;;;;;1.95;1.75;;;;;;;8.13;64.33;99353.63;690009;28;99845;-60
2021/03/12 00:15:56;;;;;;;3.20;1.75;;;;;;;8.13;64.47;99348.25;692002;28;46347;-63
2021/03/12 00:16:17;;;;;;;3.13;1.70;;;;;;;8.14;64.24;99354.50;693342;28;22153;-62
2021/03/12 00:16:38;;;;;;;2.30;1.70;;;;;;;8.11;64.33;99348.44;691644;28;26318;-62
2021/03/12 00:16:59;;;;;;;1.95;1.75;;;;;;;8.09;64.59;99353.19;690616;28;9071;-62
2021/03/12 00:17:21;;;;;;;2.55;1.85;;;;;;;8.12;64.44;99355.50;689670;28;1447;-61
2021/03/12 00:17:42;;;;;;;2.65;1.63;;;;;;;8.10;63.90;99362.94;689739;28;10676;-62
2021/03/12 00:18:04;;;;;;;2.55;1.50;;;;;;;8.11;64.32;99359.22;689258;28;26013;-63
2021/03/12 00:18:28;;;;;;;2.70;1.90;;;;;;;8.10;64.44;99359.41;688371;28;47465;-63
2021/03/12 00:18:50;;;;;;;2.13;1.80;;;;;;;8.07;64.28;99357.09;685973;28;93393;-62
2021/03/12 00:19:12;;;;;;;2.15;1.88;;;;;;;8.07;64.46;99362.47;686983;28;46421;-63
2021/03/12 00:19:33;;;;;;;3.40;2.10;;;;;;;8.06;64.58;99358.16;685317;28;45242;-62
2021/03/12 00:19:55;;;;;;;1.90;1.80;;;;;;;8.05;64.32;99357.28;688322;28;8505;-62
2021/03/12 00:20:18;;;;;;;1.60;1.50;;;;;;;8.03;64.52;99358.53;689331;28;22410;-62
2021/03/12 00:20:40;;;;;;;1.75;1.50;;;;;;;8.03;64.42;99356.66;686257;28;80195;-62
2021/03/12 00:21:02;;;;;;;4.20;1.70;;;;;;;8.02;64.25;99362.25;685687;28;59512;-61
2021/03/12 00:21:24;;;;;;;2.92;2.05;;;;;;;8.04;64.76;99352.97;685605;28;45357;-62
2021/03/12 00:21:45;;;;;;;3.83;1.95;;;;;;;8.04;64.55;99355.66;689520;28;46096;-62
2021/03/12 00:22:07;;;;;;;1.85;1.63;;;;;;;8.04;64.59;99365.56;689747;28;23487;-63
2021/03/12 00:22:28;;;;;;;2.30;1.70;;;;;;;8.02;64.72;99363.06;685635;28;44380;-63
2021/03/12 00:22:51;;;;;;;2.05;1.50;;;;;;;7.99;64.67;99352.69;689037;28;1062;-62
2021/03/12 00:23:12;;;;;;;1.77;1.60;;;;;;;8.01;64.62;99363.25;691124;28;38991;-62
2021/03/12 00:23:34;;;;;;;2.30;1.77;;;;;;;8.00;64.84;99364.31;690244;28;30981;-63
2021/03/12 00:23:56;;;;;;;3.25;1.90;;;;;;;7.99;64.69;99362.63;689159;28;46720;-63
2021/03/12 00:24:17;;;;;;;3.30;1.70;;;;;;;7.99;64.96;99370.69;692679;28;44194;-61
2021/03/12 00:24:39;;;;;;;2.10;1.77;;;;;;;8.02;64.79;99371.13;690403;28;33160;-62
2021/03/12 00:25:01;;;;;;;2.55;1.80;;;;;;;8.04;64.66;99365.56;690986;28;17015;-61
2021/03/12 00:25:25;;;;;;;2.25;1.63;;;;;;;8.03;64.69;99363.91;691298;28;13470;-62
2021/03/12 00:25:47;;;;;;;2.70;1.65;;;;;;;8.03;64.61;99366.59;687525;28;109921;-61
2021/03/12 00:26:08;;;;;;;3.15;2.00;;;;;;;8.06;64.62;99361.66;691722;28;46276;-62
2021/03/12 00:26:30;;;;;;;3.08;1.83;;;;;;;8.06;64.42;99366.22;690458;28;46330;-62
2021/03/12 00:26:59;;;;;;;1.90;1.63;;;;;;;8.05;64.48;99362.69;689125;28;138061;-62
2021/03/12 00:27:20;;;;;;;3.15;1.80;;;;;;;8.03;64.48;99362.03;690466;28;74917;-61
2021/03/12 00:27:42;;;;;;;4.50;1.80;;;;;;;8.04;64.26;99363.72;693132;28;13297;-62
2021/03/12 00:28:03;;;;;;;4.05;1.88;;;;;;;8.07;64.60;99373.25;689389;28;22490;-62
2021/03/12 00:28:25;;;;;;;2.38;1.60;;;;;;;8.09;64.11;99369.34;686337;28;46396;-62
2021/03/12 00:28:46;;;;;;;1.70;1.60;;;;;;;8.08;64.14;99366.84;687191;28;45246;-62
2021/03/12 00:29:07;;;;;;;1.88;1.70;;;;;;;8.09;64.11;99369.34;687957;28;22434;-62
2021/03/12 00:29:28;;;;;;;3.70;2.08;;;;;;;8.09;64.29;99363.13;686346;28;23486;-61
2021/03/12 00:29:49;;;;;;;2.38;1.70;;;;;;;8.05;64.26;99367.22;687152;28;23616;-61
2021/03/12 00:30:12;;;;;;;1.63;1.52;;;;;;;8.06;64.27;99363.53;686644;28;22446;-62
2021/03/12 00:30:35;;;;;;;2.97;1.85;;;;;;;8.07;64.55;99375.94;687039;28;73356;-62
2021/03/12 00:30:56;;;;;;;3.63;1.77;;;;;;;8.07;64.37;99370.53;689638;28;18616;-61
2021/03/12 00:31:17;;;;;;;2.88;1.85;;;;;;;8.06;64.44;99377.78;692100;28;22344;-62
2021/03/12 00:31:38;;;;;;;2.22;1.65;;;;;;;8.08;64.35;99372.22;692884;28;23418;-62
2021/03/12 00:31:59;;;;;;;2.53;1.75;;;;;;;8.11;64.34;99367.28;692380;28;21361;-61
2021/03/12 00:32:21;;;;;;;2.50;1.77;;;;;;;8.14;63.95;99367.94;689824;28;67562;-62
2021/03/12 00:32:42;;;;;;;2.78;1.58;;;;;;;8.13;64.10;99372.47;691412;28;28453;-63
2021/03/12 00:33:04;;;;;;;2.40;1.50;;;;;;;8.12;64.10;99371.63;689391;28;17482;-62
2021/03/12 00:33:27;;;;;;;2.58;1.60;;;;;;;8.13;63.96;99372.47;688352;28;46339;-61
2021/03/12 00:33:48;;;;;;;1.77;1.67;;;;;;;8.12;63.96;99371.63;684532;28;59209;-61
2021/03/12 00:34:10;;;;;;;1.80;1.70;;;;;;;8.14;64.15;99362.56;688792;28;14820;-61
2021/03/12 00:34:31;;;;;;;2.10;1.83;;;;;;;8.13;63.89;99364.38;690080;28;36350;-62
2021/03/12 00:34:52;;;;;;;2.05;1.67;;;;;;;8.16;63.81;99366.69;688422;28;21653;-62
2021/03/12 00:35:14;;;;;;;2.80;1.80;;;;;;;8.14;63.84;99368.75;690472;28;22412;-62
2021/03/12 00:35:36;;;;;;;3.95;2.15;;;;;;;8.13;63.99;99364.38;689460;28;46332;-62
2021/03/12 00:35:57;;;;;;;3.00;1.77;;;;;;;8.12;64.07;99373.50;692255;28;44380;-59
2021/03/12 00:36:18;;;;;;;2.40;1.70;;;;;;;8.10;63.99;99376.38;693432;28;22096;-61
2021/03/12 00:36:40;;;;;;;1.80;1.70;;;;;;;8.11;63.97;99379.91;694389;28;24305;-62
2021/03/12 00:37:01;;;;;;;2.15;1.92;;;;;;;8.06;63.93;99367.03;692447;28;45064;-63
2021/03/12 00:37:22;;;;;;;2.40;1.73;;;;;;;8.08;64.09;99377.59;692530;28;23526;-63
2021/03/12 00:37:44;;;;;;;1.60;1.50;;;;;;;8.09;64.09;99384.66;692896;28;24001;-61
2021/03/12 00:38:05;;;;;;;2.30;1.60;;;;;;;8.11;64.06;99385.28;689828;28;46371;-62
2021/03/12 00:38:27;;;;;;;1.92;1.83;;;;;;;8.12;64.06;99387.78;689918;28;22390;-62
2021/03/12 00:38:48;;;;;;;3.92;2.10;;;;;;;8.14;63.58;99386.75;690326;28;46332;-62
2021/03/12 00:39:09;;;;;;;4.05;1.90;;;;;;;8.14;63.87;99386.75;691483;28;22387;-62
2021/03/12 00:39:31;;;;;;;1.77;1.67;;;;;;;8.14;63.61;99392.13;690438;28;46131;-61
2021/03/12 00:39:53;;;;;;;2.22;1.60;;;;;;;8.11;63.80;99386.09;691269;28;22407;-62
2021/03/12 00:40:16;;;;;;;2.47;1.60;;;;;;;8.11;63.74;99394.16;693360;28;22449;-62
2021/03/12 00:40:39;;;;;;;2.20;1.50;;;;;;;8.11;63.65;99402.22;688893;28;69405;-61
2021/03/12 00:41:03;;;;;;;2.30;1.70;;;;;;;8.13;63.86;99399.34;687626;28;92297;-62
2021/03/12 00:41:30;;;;;;;2.50;1.90;;;;;;;8.13;63.64;99399.34;684463;28;160636;-62
2021/03/12 00:41:57;;;;;;;2.85;1.95;;;;;;;8.10;63.77;99381.78;685303;28;137385;-60
2021/03/12 00:42:18;;;;;;;2.45;1.60;;;;;;;8.10;63.91;99388.97;685157;28;46383;-61
2021/03/12 00:42:40;;;;;;;3.20;1.50;;;;;;;8.11;63.95;99393.34;685430;28;21571;-62
2021/03/12 00:43:01;;;;;;;3.42;1.80;;;;;;;8.10;63.87;99388.97;682664;28;46374;-63
2021/03/12 00:43:28;;;;;;;2.33;1.80;;;;;;;8.10;63.82;99394.38;684879;28;137867;-61
2021/03/12 00:43:52;;;;;;;2.50;1.70;;;;;;;8.07;63.79;99397.44;686618;28;88828;-61
2021/03/12 00:44:26;;;;;;;2.08;1.70;;;;;;;8.07;64.13;99400.13;688280;28;136849;-62
2021/03/12 00:44:48;;;;;;;1.90;1.70;;;;;;;8.05;63.99;99391.44;695340;28;24324;-60
2021/03/12 00:45:13;;;;;;;3.08;1.70;;;;;;;8.07;63.97;99394.75;691829;28;45226;-62
2021/03/12 00:45:39;;;;;;;2.45;1.80;;;;;;;8.06;64.14;99396.63;684326;28;158971;-60
2021/03/12 00:46:09;;;;;;;2.55;1.90;;;;;;;8.09;63.93;99398.09;685827;28;137870;-62
2021/03/12 00:46:36;;;;;;;2.10;1.70;;;;;;;8.08;64.12;99396.41;686687;28;92408;-60
2021/03/12 00:46:57;;;;;;;2.20;1.80;;;;;;;8.07;64.06;99400.13;686565;28;136580;-61
2021/03/12 00:47:18;;;;;;;1.98;1.58;;;;;;;8.07;63.79;99395.59;689706;28;23368;-61
2021/03/12 00:47:43;;;;;;;2.00;1.80;;;;;;;8.10;63.98;99392.53;687394;28;15365;-61
2021/03/12 00:48:05;;;;;;;2.28;1.85;;;;;;;8.09;63.66;99398.09;683336;28;46383;-60
2021/03/12 00:48:27;;;;;;;2.38;1.50;;;;;;;8.08;63.87;99389.19;682765;28;16396;-61
2021/03/12 00:48:50;;;;;;;3.10;1.63;;;;;;;8.08;63.78;99394.56;683548;28;92289;-60
2021/03/12 00:49:12;;;;;;;2.30;1.60;;;;;;;8.06;63.95;99393.94;688644;28;17657;-60
2021/03/12 00:49:35;;;;;;;2.10;1.70;;;;;;;8.05;63.73;99388.75;686357;28;92486;-62
2021/03/12 00:49:57;;;;;;;1.75;1.63;;;;;;;8.03;64.03;99396.19;687770;28;40645;-61
2021/03/12 00:50:23;;;;;;;2.60;1.63;;;;;;;8.03;63.97;99399.69;687148;28;9851;-63
2021/03/12 00:50:46;;;;;;;1.83;1.73;;;;;;;8.06;63.91;99393.94;680544;28;132324;-62
2021/03/12 00:51:13;;;;;;;2.15;1.70;;;;;;;8.08;63.82;99386.50;680376;28;126556;-61
2021/03/12 00:51:52;;;;;;;2.40;1.73;;;;;;;8.07;63.57;99400.97;687759;28;132985;-61
2021/03/12 00:52:17;;;;;;;1.85;1.70;;;;;;;8.05;63.84;99388.75;691613;28;113701;-60
2021/03/12 00:52:41;;;;;;;2.72;1.90;;;;;;;8.04;63.82;99397.81;691606;28;29772;-57
2021/03/12 00:53:02;;;;;;;2.13;1.80;;;;;;;8.02;63.80;99395.31;690898;28;61661;-56
2021/03/12 00:53:24;;;;;;;1.73;1.63;;;;;;;8.04;63.95;99397.81;690471;28;7087;-58
2021/03/12 00:53:49;;;;;;;1.90;1.80;;;;;;;8.00;63.88;99400.06;684205;28;60325;-58
2021/03/12 00:54:10;;;;;;;2.78;1.98;;;;;;;8.00;63.98;99393.88;681598;28;22407;-59
2021/03/12 00:54:36;;;;;;;2.72;1.92;;;;;;;8.02;64.00;99389.13;682106;28;69446;-59
2021/03/12 00:55:16;;;;;;;2.13;1.83;;;;;;;8.01;63.99;99398.22;684205;28;136014;-63
2021/03/12 00:55:42;;;;;;;2.42;1.85;;;;;;;7.99;63.93;99392.19;682174;28;138111;-62
2021/03/12 00:56:04;;;;;;;3.05;1.70;;;;;;;7.99;64.12;99390.34;686751;28;45270;-61
2021/03/12 00:56:27;;;;;;;3.38;1.70;;;;;;;8.01;63.95;99393.69;687655;28;69432;-62
2021/03/12 00:56:49;;;;;;;1.90;1.67;;;;;;;7.99;63.81;99393.03;688545;28;14291;-62
2021/03/12 00:57:10;;;;;;;3.22;1.60;;;;;;;7.98;63.89;99387.84;685945;28;11040;-62
2021/03/12 00:57:31;;;;;;;2.22;1.50;;;;;;;7.99;63.87;99394.88;681896;28;20745;-60
2021/03/12 00:57:52;;;;;;;4.78;1.58;;;;;;;7.99;64.03;99394.88;680802;29;23452;-59
2021/03/12 00:58:14;;;;;;;3.80;1.63;;;;;;;7.98;64.04;99391.38;683231;28;23190;-62
2021/03/12 00:58:36;;;;;;;1.65;1.55;;;;;;;7.97;63.74;99394.25;682300;28;59955;-61
2021/03/12 00:58:59;;;;;;;2.13;1.70;;;;;;;7.99;64.06;99392.19;684468;28;69546;-62
2021/03/12 00:59:27;;;;;;;3.88;1.92;;;;;;;7.97;63.89;99386.19;682275;28;125295;-61
2021/03/12 00:59:51;;;;;;;3.03;1.63;;;;;;;8.00;64.08;99388.50;687442;28;70528;-61
2021/03/12 01:00:13;;;;;;;2.53;1.77;;;;;;;7.99;63.74;99390.34;687125;28;41962;-63
2021/03/12 01:00:37;;;;;;;3.50;1.87;;;;;;;7.99;63.88;99393.03;683971;28;92273;-62
2021/03/12 01:01:05;;;;;;;1.70;1.60;;;;;;;7.97;63.96;99397.78;685676;28;61289;-62
2021/03/12 01:01:30;;;;;;;1.70;1.60;;;;;;;7.97;63.93;99397.78;687084;28;99146;-62
2021/03/12 01:01:51;;;;;;;2.17;1.52;;;;;;;7.98;63.99;99402.13;689049;28;29214;-62
2021/03/12 01:02:12;;;;;;;3.20;1.73;;;;;;;7.97;63.81;99395.09;688145;28;19198;-62
2021/03/12 01:02:34;;;;;;;2.72;1.65;;;;;;;7.96;64.11;99400.66;685764;28;10222;-62
2021/03/12 01:02:55;;;;;;;2.65;1.70;;;;;;;7.94;63.94;99398.97;684299;28;17076;-61
2021/03/12 01:03:16;;;;;;;2.03;1.63;;;;;;;7.92;63.98;99397.53;681118;29;37284;-62
2021/03/12 01:03:44;;;;;;;3.00;1.50;;;;;;;7.93;64.14;99405.41;674424;29;154450;-62
2021/03/12 01:04:08;;;;;;;1.70;1.60;;;;;;;7.95;64.04;99402.53;677902;29;92304;-62
2021/03/12 01:04:36;;;;;;;1.60;1.50;;;;;;;7.93;64.10;99408.09;683217;28;29812;-61
2021/03/12 01:05:05;;;;;;;2.85;1.50;;;;;;;7.92;64.06;99416.34;683563;28;129858;-58
2021/03/12 01:05:27;;;;;;;2.08;1.45;;;;;;;7.94;64.19;99411.59;687613;28;45253;-61
2021/03/12 01:05:49;;;;;;;2.28;1.80;;;;;;;7.97;64.17;99413.91;684158;28;44391;-61
2021/03/12 01:06:19;;;;;;;3.63;2.08;;;;;;;7.97;63.84;99427.34;682695;28;137940;-59
2021/03/12 01:06:47;;;;;;;2.30;1.58;;;;;;;7.98;63.90;99420.09;687121;28;137520;-61
2021/03/12 01:07:09;;;;;;;2.00;1.60;;;;;;;7.98;63.81;99415.59;690709;28;46519;-61
2021/03/12 01:07:31;;;;;;;1.90;1.60;;;;;;;7.96;64.02;99417.59;692170;28;23518;-61
2021/03/12 01:07:53;;;;;;;3.08;1.90;;;;;;;7.98;64.00;99417.41;691567;28;45266;-62
2021/03/12 01:08:18;;;;;;;1.88;1.77;;;;;;;7.98;64.00;99415.59;685676;28;138381;-62
2021/03/12 01:08:39;;;;;;;2.42;1.77;;;;;;;7.98;64.07;99420.97;685877;28;23488;-61
2021/03/12 01:09:03;;;;;;;2.63;1.80;;;;;;;7.97;64.08;99411.22;684996;28;69009;-62
2021/03/12 01:09:27;;;;;;;2.47;1.70;;;;;;;7.97;64.30;99419.28;684529;28;93216;-61
2021/03/12 01:09:48;;;;;;;3.30;1.73;;;;;;;7.96;64.31;99404.16;688948;28;42645;-61
2021/03/12 01:10:11;;;;;;;4.50;1.83;;;;;;;7.96;64.35;99412.22;689935;28;23251;-60
2021/03/12 01:10:33;;;;;;;4.30;1.90;;;;;;;7.98;64.29;99412.03;690301;28;68153;-60
2021/03/12 01:10:54;;;;;;;1.88;1.65;;;;;;;7.96;64.19;99406.03;693100;28;1773;-61
2021/03/12 01:11:15;;;;;;;1.70;1.60;;;;;;;7.98;64.23;99410.19;690523;28;46411;-63
2021/03/12 01:11:38;;;;;;;2.78;1.50;;;;;;;8.04;64.21;99419.34;689676;28;63215;-62
2021/03/12 01:12:07;;;;;;;2.15;1.77;;;;;;;8.11;63.86;99422.94;687977;28;92134;-61
2021/03/12 01:12:33;;;;;;;1.73;1.58;;;;;;;8.13;63.67;99404.72;682631;28;138277;-61
2021/03/12 01:12:54;;;;;;;2.45;1.85;;;;;;;8.10;63.54;99413.19;688619;28;46402;-61
2021/03/12 01:13:16;;;;;;;3.08;1.90;;;;;;;8.09;63.74;99412.38;686977;28;17469;-60
2021/03/12 01:13:37;;;;;;;3.63;2.00;;;;;;;8.10;63.70;99421.25;684365;28;23555;-60
2021/03/12 01:13:58;;;;;;;2.20;1.80;;;;;;;8.08;63.65;99418.75;685781;28;32618;-60
2021/03/12 01:14:27;;;;;;;2.88;1.83;;;;;;;8.10;63.83;99414.03;684698;28;138007;-61
2021/03/12 01:14:49;;;;;;;1.70;1.60;;;;;;;8.09;63.91;99408.84;685969;28;29713;-59
2021/03/12 01:15:12;;;;;;;1.92;1.70;;;;;;;8.08;63.89;99416.06;686268;28;14397;-61
2021/03/12 01:15:35;;;;;;;2.70;2.17;;;;;;;8.07;64.08;99411.72;685964;28;115170;-61
2021/03/12 01:16:05;;;;;;;3.08;1.70;;;;;;;8.10;63.97;99422.09;685580;28;136199;-62
2021/03/12 01:16:26;;;;;;;3.10;1.63;;;;;;;8.13;63.88;99410.09;688835;28;46659;-62
2021/03/12 01:16:48;;;;;;;3.33;1.80;;;;;;;8.13;63.72;99418.19;690558;28;46571;-61
2021/03/12 01:17:11;;;;;;;2.28;1.70;;;;;;;8.13;63.76;99412.81;688516;28;67153;-60
2021/03/12 01:17:33;;;;;;;1.70;1.60;;;;;;;8.12;63.91;99424.59;686830;28;22406;-61
2021/03/12 01:17:56;;;;;;;1.80;1.70;;;;;;;8.15;63.82;99410.78;685267;28;91162;-59
2021/03/12 01:18:18;;;;;;;2.15;1.70;;;;;;;8.15;63.67;99418.84;688550;28;24290;-59
2021/03/12 01:18:43;;;;;;;2.30;1.80;;;;;;;8.14;63.98;99413.66;682708;28;109418;-61
2021/03/12 01:19:15;;;;;;;2.05;1.80;;;;;;;8.14;64.05;99422.53;681960;28;137985;-61
2021/03/12 01:19:37;;;;;;;3.42;1.80;;;;;;;8.11;63.77;99414.88;689332;28;22477;-61
2021/03/12 01:20:01;;;;;;;4.53;1.95;;;;;;;8.10;64.02;99422.09;685074;28;82237;-61
2021/03/12 01:20:25;;;;;;;4.40;1.60;;;;;;;8.14;64.00;99416.34;683578;28;44699;-60
2021/03/12 01:20:47;;;;;;;3.72;1.80;;;;;;;8.13;64.00;99420.88;681326;28;92301;-61
2021/03/12 01:21:13;;;;;;;2.83;1.80;;;;;;;8.18;63.76;99422.97;678251;29;129067;-61
2021/03/12 01:21:34;;;;;;;2.30;1.98;;;;;;;8.19;63.75;99420.09;681015;29;45167;-60
2021/03/12 01:21:58;;;;;;;2.35;1.88;;;;;;;8.17;63.82;99418.66;681226;28;90470;-61
2021/03/12 01:22:19;;;;;;;2.40;2.00;;;;;;;8.16;63.78;99422.34;682585;28;46427;-63
2021/03/12 01:22:42;;;;;;;3.13;2.10;;;;;;;8.14;64.14;99419.84;683832;28;46435;-61
2021/03/12 01:23:04;;;;;;;2.30;2.10;;;;;;;8.11;64.07;99417.56;688948;28;934;-61
2021/03/12 01:23:26;;;;;;;3.05;2.00;;;;;;;8.14;64.06;99419.03;688217;28;49123;-60
2021/03/12 01:23:50;;;;;;;3.10;2.00;;;;;;;8.12;63.88;99419.22;686291;28;39617;-61
2021/03/12 01:24:12;;;;;;;1.88;1.73;;;;;;;8.10;64.25;99419.41;683994;28;65311;-60
2021/03/12 01:24:41;;;;;;;2.97;1.90;;;;;;;8.12;63.99;99421.91;682772;28;138590;-62
2021/03/12 01:25:09;;;;;;;3.47;2.15;;;;;;;8.13;64.09;99415.50;680374;28;134097;-62
2021/03/12 01:25:39;;;;;;;2.42;2.10;;;;;;;8.10;64.24;99410.50;683629;28;131437;-60
2021/03/12 01:26:01;;;;;;;2.33;2.03;;;;;;;8.11;64.42;99412.16;680265;28;128844;-62
2021/03/12 01:26:31;;;;;;;2.50;1.95;;;;;;;8.11;64.13;99404.09;680742;28;137293;-61
2021/03/12 01:27:02;;;;;;;2.03;1.80;;;;;;;8.09;64.41;99414.22;684423;28;137748;-61
2021/03/12 01:27:24;;;;;;;2.10;1.90;;;;;;;8.08;64.53;99408.00;687333;28;46532;-62
2021/03/12 01:27:47;;;;;;;1.75;1.65;;;;;;;8.10;64.52;99408.66;688608;28;46269;-62
2021/03/12 01:28:10;;;;;;;1.90;1.80;;;;;;;8.09;64.45;99396.22;688048;28;67514;-60
2021/03/12 01:28:34;;;;;;;4.28;2.17;;;;;;;8.08;64.33;99404.50;689625;28;46352;-62
2021/03/12 01:28:56;;;;;;;3.42;2.00;;;;;;;8.07;64.61;99405.50;687997;28;113592;-62
2021/03/12 01:29:31;;;;;;;2.85;1.77;;;;;;;8.08;64.45;99405.31;684440;28;123713;-62
2021/03/12 01:30:08;;;;;;;2.83;2.00;;;;;;;8.06;64.80;99402.00;685478;28;128155;-62
2021/03/12 01:30:32;;;;;;;3.30;2.17;;;;;;;8.05;64.55;99407.56;686660;28;138455;-62
2021/03/12 01:30:57;;;;;;;3.25;2.10;;;;;;;8.05;64.78;99407.56;680316;28;136035;-62
2021/03/12 01:31:37;;;;;;;1.90;1.80;;;;;;;8.09;64.46;99409.69;686815;28;137812;-63
2021/03/12 01:32:04;;;;;;;2.40;2.20;;;;;;;8.09;64.45;99400.78;686555;28;138036;-62
2021/03/12 01:32:29;;;;;;;3.55;1.85;;;;;;;8.08;64.59;99408.00;686880;28;138412;-62
2021/03/12 01:32:52;;;;;;;4.57;2.00;;;;;;;8.08;64.57;99408.00;685365;28;46904;-63
2021/03/12 01:33:15;;;;;;;3.88;2.08;;;;;;;8.06;64.72;99407.38;685491;28;70005;-62
2021/03/12 01:33:36;;;;;;;2.08;1.75;;;;;;;8.05;64.75;99407.56;684243;28;46326;-61
2021/03/12 01:33:59;;;;;;;2.08;1.92;;;;;;;8.06;64.86;99399.31;686109;28;59637;-60
2021/03/12 01:34:29;;;;;;;2.95;2.05;;;;;;;8.04;64.67;99406.75;683646;28;117809;-61
2021/03/12 01:34:52;;;;;;;2.17;1.90;;;;;;;8.06;64.74;99406.56;689122;28;45997;-61
2021/03/12 01:35:14;;;;;;;2.15;1.95;;;;;;;8.09;64.62;99411.53;687540;28;69445;-61
2021/03/12 01:35:36;;;;;;;2.30;2.10;;;;;;;8.07;64.50;99406.34;690723;28;45057;-62
2021/03/12 01:35:58;;;;;;;2.08;1.88;;;;;;;8.03;64.35;99398.88;688533;28;46301;-61
2021/03/12 01:36:19;;;;;;;2.15;1.95;;;;;;;8.07;64.77;99413.56;687799;28;22403;-63
2021/03/12 01:36:48;;;;;;;2.47;1.88;;;;;;;8.06;64.66;99412.75;681784;28;139136;-62
2021/03/12 01:37:09;;;;;;;2.97;2.17;;;;;;;8.08;64.73;99407.19;687313;28;21538;-60
2021/03/12 01:37:43;;;;;;;2.92;2.00;;;;;;;8.05;64.94;99403.00;682117;28;135973;-62
2021/03/12 01:38:04;;;;;;;2.90;2.05;;;;;;;8.04;64.97;99411.25;689293;28;18455;-62
2021/03/12 01:38:26;;;;;;;3.13;2.08;;;;;;;8.04;64.75;99393.28;688810;28;67631;-63
2021/03/12 01:38:47;;;;;;;2.50;2.10;;;;;;;8.04;65.01;99400.50;691459;28;22218;-63
2021/03/12 01:39:09;;;;;;;3.30;1.75;;;;;;;8.04;64.95;99408.56;688435;28;23315;-63
2021/03/12 01:39:31;;;;;;;3.45;2.05;;;;;;;8.03;64.95;99398.88;685526;28;66537;-62
2021/03/12 01:39:52;;;;;;;2.88;1.90;;;;;;;8.01;64.97;99403.59;687431;28;1416;-62
2021/03/12 01:40:16;;;;;;;2.97;1.90;;;;;;;8.02;64.99;99402.56;685215;28;5679;-62
2021/03/12 01:40:43;;;;;;;2.70;2.05;;;;;;;8.03;65.13;99412.31;681557;28;138879;-61
2021/03/12 01:41:05;;;;;;;2.50;2.03;;;;;;;8.04;65.09;99403.19;683179;28;89441;-62
2021/03/12 01:41:30;;;;;;;3.53;2.15;;;;;;;8.05;65.04;99407.56;682868;28;125044;-62
2021/03/12 01:41:57;;;;;;;2.50;1.95;;;;;;;8.03;65.00;99401.56;686691;28;118153;-62
2021/03/12 01:42:23;;;;;;;2.10;1.88;;;;;;;8.04;65.06;99401.38;682852;28;138101;-62
2021/03/12 01:42:46;;;;;;;3.42;2.00;;;;;;;8.03;65.01;99390.81;685410;28;46565;-62
2021/03/12 01:43:07;;;;;;;2.78;1.80;;;;;;;8.03;65.27;99399.69;687477;28;43056;-62
2021/03/12 01:43:30;;;;;;;2.65;1.80;;;;;;;8.03;65.16;99402.38;686370;28;69532;-62
2021/03/12 01:43:51;;;;;;;2.22;2.00;;;;;;;8.02;65.21;99405.25;689073;28;22768;-62
2021/03/12 01:44:18;;;;;;;2.70;2.10;;;;;;;8.01;65.23;99399.06;686638;28;114862;-62
2021/03/12 01:44:42;;;;;;;2.83;1.98;;;;;;;8.01;65.26;99406.28;685852;28;137604;-61
2021/03/12 01:45:05;;;;;;;4.20;2.28;;;;;;;8.01;65.25;99406.28;688482;28;21509;-64
2021/03/12 01:45:28;;;;;;;3.92;2.35;;;;;;;8.00;65.37;99410.00;688893;28;69452;-61
2021/03/12 01:45:51;;;;;;;2.47;1.98;;;;;;;7.99;65.45;99408.34;688114;28;91434;-63
2021/03/12 01:46:19;;;;;;;3.67;1.88;;;;;;;7.98;65.57;99402.13;686390;28;138546;-63
2021/03/12 01:46:40;;;;;;;2.13;1.80;;;;;;;7.98;65.39;99404.81;694253;28;19075;-62
2021/03/12 01:47:02;;;;;;;2.22;1.90;;;;;;;7.99;65.46;99408.34;690122;28;38369;-61
2021/03/12 01:47:24;;;;;;;2.35;2.10;;;;;;;7.97;65.57;99411.22;685438;28;22403;-61
2021/03/12 01:47:46;;;;;;;2.65;2.03;;;;;;;7.97;65.60;99405.00;688068;28;44547;-63
2021/03/12 01:48:09;;;;;;;2.90;2.50;;;;;;;7.96;65.66;99408.72;686967;28;44372;-61
2021/03/12 01:48:31;;;;;;;2.35;2.15;;;;;;;7.97;65.70;99405.00;686160;28;65465;-62
2021/03/12 01:48:53;;;;;;;2.95;2.15;;;;;;;7.98;65.57;99409.34;685046;28;43749;-63
2021/03/12 01:49:14;;;;;;;3.10;1.83;;;;;;;7.97;65.65;99413.09;687041;28;31669;-62
2021/03/12 01:49:35;;;;;;;3.10;1.80;;;;;;;7.96;65.78;99406.03;688053;28;22410;-62
2021/03/12 01:49:57;;;;;;;2.80;1.80;;;;;;;7.97;65.62;99418.47;685609;28;21465;-62
2021/03/12 01:50:19;;;;;;;2.85;1.90;;;;;;;7.97;65.57;99416.59;680654;28;44330;-62
2021/03/12 01:50:42;;;;;;;2.20;1.90;;;;;;;7.98;65.48;99414.72;682796;28;46363;-62
2021/03/12 01:51:05;;;;;;;2.28;2.08;;;;;;;7.95;65.71;99407.91;683534;28;70294;-62
2021/03/12 01:51:27;;;;;;;3.55;1.90;;;;;;;7.96;65.64;99406.84;684174;28;92315;-62
2021/03/12 01:51:48;;;;;;;4.88;1.70;;;;;;;7.98;65.60;99412.03;686334;28;22403;-61